Vilnius, Lietuva

10:52 AM EEST on rugsėjo 01, 2015 (GMT +0300)
Vilnius International | | Change Station
CLOSE
Current Station
Oro uostas
Location: Vilnius,
Elevation: 643 ft
Nearby Weather Stations

Elev 643 ft 54.63 °N, 25.29 °E | Updated 2 minutes ago

Clear
Geras oras
73 °F
Feels Like 73 °F
N
10
Vėjas nepastovus Vėjas from Pietryčių

Šiandien
High -- | Low -- °F
--% Chance of Precip.
Yesterday
High -- | Low -- °F
Precip. -- in
6:24 AM 8:11 PM
Delčia, 90% visible
Slėgis 29.83 in
Matomumas -9999.0 mylios
Debesys
Rasos taškas 54 °F
Drėgmė 50%
Krituliai 0.00 in
Sniego dangos storis Not available.
UV Not available.
Pollen Not available.
Air Quality Not available.
Flu Activity Not available.
METAR EYVI 010750Z 14009KT CAVOK 23/12 Q1010 NOSIG
Slėgis 29.83 in
Matomumas -9999.0 mylios
Debesys
Rasos taškas 54 °F
Drėgmė 50%
Krituliai 0.00 in
Sniego dangos storis Not available.
UV Not available.
Pollen Not available.
Air Quality Not available.
Flu Activity Not available.
METAR EYVI 010750Z 14009KT CAVOK 23/12 Q1010 NOSIG

10-Day Weather Forecast

×

Almanac

Astronomija

Sep. 01, 2015 Rise Set
Vietos laikas
Dienos šviesa
Jūrinė diena
Astronominė diena
Mėnulis
Matomos šviesos trukmė
Dienos ilgis
Tomorrow will be .
, % of the Moon is Illuminated

Šiandienos maksimumai

Country Highs Country Lows

Community

WunderPhotos

Upload Photos

1,851,488 photos uploaded!

WunderBlogs® & News

Nearby

Air Quality

  Air Quality AQ Index Pollutant
Not available.

Sniego danga

Station Depth Elevation

Earthquake Activity

Miestas Distance Mag. Time & Date
Minimum magnitude displayed is 2.5.

Coastal Water Temperatures

Vieta Temperatūra

Stations

Nearby Weather Stations

Station Location Temp Šaltas vėjas Rasos taškas Drėgmė Vėjas Precip. Elev Duomenys papildyti Type